Time;durP1;ratioP1;P1;durP2;ratioP2;P2;SDS_P1;SDS_P2;PMS_P1;PMS_P2;Temp;Humidity;BMP_temperature;BMP_pressure;BME280_temperature;BME280_humidity;BME280_pressure;Samples;Min_cycle;Max_cycle;Signal;HPM_P1;HPM_P2
2021/12/07 00:02:00;;;;;;;19.63;4.43;;;5.10;91.80;;;;;;5030612;28;20029;-75
2021/12/07 00:04:26;;;;;;;14.30;3.95;;;5.10;91.80;;;;;;5041761;28;20120;-72
2021/12/07 00:06:52;;;;;;;14.32;4.47;;;5.10;91.60;;;;;;5045314;28;20041;-75
2021/12/07 00:09:18;;;;;;;16.55;4.63;;;5.10;91.50;;;;;;5044002;28;20876;-75
2021/12/07 00:11:47;;;;;;;15.30;4.38;;;5.10;91.40;;;;;;5037663;28;20041;-75
2021/12/07 00:14:15;;;;;;;13.82;3.95;;;5.10;91.20;;;;;;5040529;28;20041;-74
2021/12/07 00:16:43;;;;;;;17.70;4.43;;;5.10;91.10;;;;;;5046172;28;20127;-74
2021/12/07 00:19:12;;;;;;;13.15;3.50;;;5.20;91.00;;;;;;5042400;28;20093;-73
2021/12/07 00:21:41;;;;;;;13.63;3.50;;;5.20;90.80;;;;;;5046484;28;20041;-74
2021/12/07 00:24:08;;;;;;;17.17;4.07;;;5.20;90.70;;;;;;5043470;28;20064;-75
2021/12/07 00:26:33;;;;;;;14.65;3.17;;;5.20;90.60;;;;;;5040402;28;20060;-77
2021/12/07 00:29:02;;;;;;;14.90;4.65;;;5.20;90.50;;;;;;5044989;28;20041;-73
2021/12/07 00:31:35;;;;;;;14.75;4.90;;;5.20;90.40;;;;;;5047296;28;20034;-76
2021/12/07 00:36:33;;;;;;;13.18;4.95;;;5.10;90.20;;;;;;5044971;28;20038;-74
2021/12/07 00:38:59;;;;;;;12.13;4.75;;;5.10;90.20;;;;;;5045047;28;20034;-74
2021/12/07 00:41:25;;;;;;;12.32;5.00;;;5.00;90.30;;;;;;5039738;28;20045;-74
2021/12/07 00:43:51;;;;;;;20.38;5.75;;;5.00;90.40;;;;;;5044866;28;20029;-75
2021/12/07 00:46:19;;;;;;;14.60;5.47;;;5.00;90.40;;;;;;5045164;28;20037;-75
2021/12/07 00:48:44;;;;;;;13.88;5.82;;;5.00;90.30;;;;;;5043817;28;20030;-75
2021/12/07 00:51:10;;;;;;;20.05;5.18;;;5.10;90.10;;;;;;5041483;28;20050;-76
2021/12/07 00:53:36;;;;;;;14.88;5.25;;;5.10;90.10;;;;;;5040746;28;20097;-74
2021/12/07 00:56:03;;;;;;;13.23;4.75;;;5.00;90.10;;;;;;5038363;28;20049;-74
2021/12/07 00:58:30;;;;;;;15.20;4.78;;;5.00;90.10;;;;;;5044100;28;20029;-74
2021/12/07 01:01:00;;;;;;;12.70;4.15;;;5.00;90.00;;;;;;5045707;28;20037;-74
2021/12/07 01:03:27;;;;;;;14.07;5.15;;;4.90;89.80;;;;;;5043020;28;20064;-74
2021/12/07 01:06:04;;;;;;;17.08;7.22;;;4.90;90.10;;;;;;5044957;28;20032;-74
2021/12/07 01:08:55;;;;;;;28.10;17.35;;;4.90;90.10;;;;;;5040847;28;20087;-74
2021/12/07 01:25:10;;;;;;;21.48;5.15;;;4.80;90.10;;;;;;5039658;28;20090;-74
2021/12/07 01:27:37;;;;;;;12.68;3.92;;;4.70;90.00;;;;;;5045230;28;20025;-76
2021/12/07 01:30:15;;;;;;;14.73;4.10;;;4.60;90.10;;;;;;5042836;28;20042;-75
2021/12/07 01:38:36;;;;;;;9.63;4.60;;;4.50;90.50;;;;;;5045009;28;20056;-74
2021/12/07 01:41:31;;;;;;;12.50;4.88;;;4.60;90.40;;;;;;5040958;28;20026;-74
2021/12/07 01:52:21;;;;;;;13.07;4.50;;;4.40;90.10;;;;;;5042470;28;20048;-74
2021/12/07 02:00:13;;;;;;;15.55;4.70;;;4.40;90.20;;;;;;5042922;28;20048;-75
2021/12/07 02:02:39;;;;;;;18.45;4.63;;;4.40;90.10;;;;;;5043222;28;20109;-74
2021/12/07 02:05:06;;;;;;;16.75;4.55;;;4.40;89.90;;;;;;5044097;28;20037;-75
2021/12/07 02:07:32;;;;;;;20.05;5.20;;;4.40;90.00;;;;;;5044539;28;20060;-75
2021/12/07 02:10:04;;;;;;;11.32;3.45;;;4.30;89.70;;;;;;5037981;28;20049;-75
2021/12/07 02:12:41;;;;;;;14.85;4.18;;;4.40;89.60;;;;;;5040479;28;20049;-74
2021/12/07 02:15:07;;;;;;;18.10;4.43;;;4.30;89.60;;;;;;5038738;28;20042;-73
2021/12/07 02:17:34;;;;;;;15.93;5.13;;;4.20;89.50;;;;;;5043352;28;20021;-74
2021/12/07 02:19:59;;;;;;;15.45;4.78;;;4.20;89.50;;;;;;5039866;28;20042;-73
2021/12/07 02:22:25;;;;;;;18.23;5.28;;;4.10;89.50;;;;;;5040759;28;20039;-74
2021/12/07 02:24:51;;;;;;;15.73;4.63;;;4.10;89.60;;;;;;5043104;28;20060;-74
2021/12/07 02:27:17;;;;;;;19.63;4.63;;;4.10;89.60;;;;;;5045361;28;20034;-75
2021/12/07 02:29:42;;;;;;;13.63;4.35;;;4.00;89.60;;;;;;5043978;28;20265;-74
2021/12/07 02:32:08;;;;;;;16.45;4.53;;;4.00;89.70;;;;;;5040336;28;20429;-74
2021/12/07 02:34:36;;;;;;;14.77;4.22;;;3.90;89.80;;;;;;5042284;28;20100;-74
2021/12/07 02:37:02;;;;;;;15.68;4.65;;;3.90;89.90;;;;;;5042379;28;20037;-76
2021/12/07 02:39:33;;;;;;;12.82;3.95;;;3.90;89.90;;;;;;5043451;28;20063;-73
2021/12/07 02:42:04;;;;;;;21.45;4.97;;;3.90;89.90;;;;;;5040160;28;20049;-74
2021/12/07 02:44:31;;;;;;;11.57;3.95;;;3.90;90.00;;;;;;5036934;28;20033;-73
2021/12/07 02:46:57;;;;;;;18.02;4.35;;;3.80;89.80;;;;;;5037489;28;20059;-75
2021/12/07 02:49:23;;;;;;;10.93;4.57;;;3.80;89.90;;;;;;5041419;28;20072;-74
2021/12/07 02:51:49;;;;;;;18.02;4.57;;;3.70;90.00;;;;;;5043899;28;20037;-75
2021/12/07 02:54:15;;;;;;;13.25;3.42;;;3.70;90.00;;;;;;5039639;28;20074;-73
2021/12/07 02:56:41;;;;;;;11.32;3.47;;;3.60;90.10;;;;;;5042315;28;20037;-74
2021/12/07 02:59:07;;;;;;;13.95;3.70;;;3.60;90.20;;;;;;5043845;28;20040;-74
2021/12/07 03:01:37;;;;;;;13.68;3.72;;;3.60;90.20;;;;;;5042425;28;20029;-74
2021/12/07 03:04:09;;;;;;;15.05;3.95;;;3.60;90.20;;;;;;5042816;28;20469;-75
2021/12/07 03:06:47;;;;;;;15.10;4.35;;;3.60;90.40;;;;;;5040210;28;20048;-74
2021/12/07 03:28:14;;;;;;;18.47;5.60;;;3.40;90.70;;;;;;5040485;28;20041;-74
2021/12/07 03:30:40;;;;;;;17.33;4.22;;;3.40;90.70;;;;;;5044113;28;20038;-74
2021/12/07 03:33:06;;;;;;;16.45;4.05;;;3.30;90.60;;;;;;5041002;28;20026;-74
2021/12/07 03:35:32;;;;;;;21.00;4.55;;;3.30;90.60;;;;;;5040320;28;20053;-74
2021/12/07 03:37:58;;;;;;;14.65;5.05;;;3.30;90.70;;;;;;5046756;28;20052;-74
2021/12/07 03:40:24;;;;;;;17.02;4.50;;;3.20;90.70;;;;;;5045339;28;20030;-73
2021/12/07 03:42:50;;;;;;;17.55;4.72;;;3.20;90.80;;;;;;5044537;28;20083;-72
2021/12/07 03:45:16;;;;;;;12.82;4.28;;;3.20;90.90;;;;;;5041706;28;20054;-73
2021/12/07 03:47:42;;;;;;;13.30;3.75;;;3.20;91.00;;;;;;5046571;28;20033;-74
2021/12/07 03:50:09;;;;;;;11.80;4.13;;;3.20;91.00;;;;;;5047134;28;20424;-73
2021/12/07 03:52:35;;;;;;;13.98;4.03;;;3.10;91.00;;;;;;5046260;28;20041;-72
2021/12/07 03:55:02;;;;;;;11.45;4.30;;;3.10;91.00;;;;;;5046690;28;20061;-74
2021/12/07 03:57:28;;;;;;;16.58;4.07;;;3.10;91.10;;;;;;5061764;28;20034;-75
2021/12/07 03:59:54;;;;;;;15.30;4.47;;;3.10;91.10;;;;;;5043674;28;20514;-73
2021/12/07 04:02:19;;;;;;;11.88;4.43;;;3.00;91.10;;;;;;5045999;28;20038;-74
2021/12/07 04:04:45;;;;;;;18.52;5.13;;;3.10;91.10;;;;;;5045769;28;20121;-74
2021/12/07 04:07:11;;;;;;;16.25;4.22;;;3.10;91.20;;;;;;5046779;28;20116;-75
2021/12/07 04:09:36;;;;;;;15.88;3.85;;;3.10;91.10;;;;;;5044623;28;20047;-76
2021/12/07 04:12:02;;;;;;;12.95;4.38;;;3.10;91.20;;;;;;5045456;28;20044;-74
2021/12/07 04:14:28;;;;;;;15.73;4.38;;;3.10;91.20;;;;;;5060234;28;20064;-74
2021/12/07 04:16:54;;;;;;;15.15;4.10;;;3.10;91.10;;;;;;5045892;28;20041;-73
2021/12/07 04:19:20;;;;;;;15.95;5.78;;;3.10;91.10;;;;;;5044974;28;20060;-74
2021/12/07 04:21:45;;;;;;;12.55;4.43;;;3.10;91.00;;;;;;5045386;28;20029;-74
2021/12/07 04:24:11;;;;;;;16.00;4.57;;;3.10;91.00;;;;;;5047448;28;20022;-73
2021/12/07 04:26:38;;;;;;;18.45;4.45;;;3.00;91.00;;;;;;5046789;28;20040;-74
2021/12/07 04:29:04;;;;;;;16.30;4.35;;;3.00;91.00;;;;;;5042906;28;20048;-73
2021/12/07 04:31:29;;;;;;;14.32;3.80;;;3.00;91.00;;;;;;5042693;28;20038;-73
2021/12/07 04:33:56;;;;;;;11.35;3.42;;;3.00;91.10;;;;;;5047041;28;20033;-74
2021/12/07 04:36:21;;;;;;;15.70;3.83;;;3.10;91.00;;;;;;5043252;28;20068;-73
2021/12/07 04:38:47;;;;;;;11.65;3.53;;;3.10;91.00;;;;;;5045604;28;20025;-73
2021/12/07 04:41:13;;;;;;;17.75;4.65;;;3.00;91.00;;;;;;5045649;28;20029;-75
2021/12/07 04:43:40;;;;;;;16.40;4.45;;;3.00;91.10;;;;;;5039028;28;20041;-73
2021/12/07 04:59:14;;;;;;;14.13;4.25;;;3.00;91.20;;;;;;5028451;28;20041;-74
2021/12/07 05:01:40;;;;;;;15.65;4.40;;;3.00;91.10;;;;;;5041899;28;20037;-73
2021/12/07 05:04:15;;;;;;;15.75;4.90;;;3.00;91.10;;;;;;5042962;28;20029;-76
2021/12/07 05:06:46;;;;;;;12.00;4.40;;;3.00;91.00;;;;;;5043435;28;20041;-75
2021/12/07 05:14:33;;;;;;;18.88;4.38;;;2.90;90.90;;;;;;5043502;28;20048;-74
2021/12/07 05:38:40;;;;;;;13.77;4.60;;;2.50;91.20;;;;;;5044140;28;20036;-75
2021/12/07 05:41:08;;;;;;;19.95;4.63;;;2.60;91.30;;;;;;5041804;28;20030;-75
2021/12/07 05:43:35;;;;;;;14.93;4.72;;;2.50;91.30;;;;;;5044469;28;20037;-74
2021/12/07 05:46:02;;;;;;;15.48;5.32;;;2.50;91.30;;;;;;5041265;28;20045;-75
2021/12/07 05:48:28;;;;;;;15.93;5.15;;;2.50;91.30;;;;;;5032818;28;20064;-75
2021/12/07 05:50:54;;;;;;;16.05;4.90;;;2.50;91.30;;;;;;5044682;28;20033;-76
2021/12/07 05:53:19;;;;;;;14.40;5.20;;;2.40;91.40;;;;;;5044407;28;20041;-74
2021/12/07 05:55:45;;;;;;;15.88;4.85;;;2.40;91.40;;;;;;5043545;28;20064;-73
2021/12/07 05:58:12;;;;;;;14.55;4.63;;;2.30;91.50;;;;;;5036141;28;20056;-74
2021/12/07 06:00:42;;;;;;;16.85;5.10;;;2.30;91.60;;;;;;5022641;28;20034;-74
2021/12/07 06:03:09;;;;;;;14.20;5.05;;;2.30;91.70;;;;;;5030962;28;20049;-73
2021/12/07 06:05:36;;;;;;;13.48;5.22;;;2.20;91.60;;;;;;5040021;28;20069;-73
2021/12/07 06:08:02;;;;;;;17.17;6.07;;;2.20;91.70;;;;;;5042758;28;20418;-75
2021/12/07 06:10:29;;;;;;;17.30;6.65;;;2.20;91.70;;;;;;5041478;28;20603;-73
2021/12/07 06:12:55;;;;;;;20.52;6.35;;;2.20;91.70;;;;;;5036613;28;20049;-72
2021/12/07 06:15:23;;;;;;;15.82;5.45;;;2.20;91.70;;;;;;5042833;28;20055;-74
2021/12/07 06:17:50;;;;;;;15.80;6.15;;;2.10;91.60;;;;;;5040830;28;20068;-73
2021/12/07 06:20:16;;;;;;;20.95;6.15;;;2.10;91.70;;;;;;5038956;28;20064;-74
2021/12/07 06:22:42;;;;;;;21.65;5.47;;;2.10;91.80;;;;;;5038552;28;20110;-75
2021/12/07 06:25:10;;;;;;;20.92;5.43;;;2.10;91.80;;;;;;5043311;28;20037;-73
2021/12/07 06:27:38;;;;;;;15.60;5.45;;;2.10;91.90;;;;;;5041533;28;20037;-72
2021/12/07 06:30:05;;;;;;;14.77;5.70;;;2.10;91.90;;;;;;5039146;28;20080;-74
2021/12/07 06:32:31;;;;;;;17.67;5.75;;;2.10;91.90;;;;;;5039592;28;20775;-74
2021/12/07 06:34:56;;;;;;;14.82;5.80;;;2.00;91.90;;;;;;5038529;28;20409;-74
2021/12/07 06:37:22;;;;;;;14.60;5.90;;;2.00;91.90;;;;;;5041472;28;20323;-75
2021/12/07 06:39:48;;;;;;;16.70;6.03;;;2.00;92.00;;;;;;5041838;28;20033;-75
2021/12/07 06:42:14;;;;;;;16.38;6.00;;;1.90;91.90;;;;;;5028845;28;20068;-75
2021/12/07 06:44:40;;;;;;;16.77;6.35;;;1.90;92.00;;;;;;5023895;28;20121;-75
2021/12/07 06:47:06;;;;;;;18.50;6.78;;;1.90;92.10;;;;;;5036968;28;20036;-74
2021/12/07 06:49:31;;;;;;;19.75;6.57;;;1.90;92.10;;;;;;5041045;28;20060;-71
2021/12/07 06:51:58;;;;;;;18.45;7.10;;;1.90;92.20;;;;;;5041965;28;20037;-71
2021/12/07 06:54:25;;;;;;;28.52;7.57;;;1.90;92.20;;;;;;5040525;28;20034;-71
2021/12/07 06:56:52;;;;;;;18.02;7.30;;;1.90;92.30;;;;;;5035158;28;20076;-71
2021/12/07 06:59:18;;;;;;;19.80;7.10;;;1.90;92.20;;;;;;5039387;28;20068;-71
2021/12/07 07:01:45;;;;;;;20.38;7.43;;;1.90;92.30;;;;;;5039711;28;20038;-71
2021/12/07 07:04:12;;;;;;;18.50;5.78;;;1.90;92.30;;;;;;5038578;28;20136;-73
2021/12/07 07:06:38;;;;;;;22.15;6.40;;;1.90;92.20;;;;;;5043352;28;20041;-72
2021/12/07 07:09:05;;;;;;;14.75;5.65;;;1.80;92.20;;;;;;5034438;28;20057;-71
2021/12/07 07:11:31;;;;;;;16.73;6.13;;;1.80;92.20;;;;;;5039530;28;20036;-70
2021/12/07 07:13:57;;;;;;;17.10;5.40;;;1.80;92.30;;;;;;5037292;28;20057;-71
2021/12/07 07:16:23;;;;;;;20.13;6.10;;;1.80;92.20;;;;;;5037175;28;20065;-72
2021/12/07 07:18:49;;;;;;;18.67;6.57;;;1.70;92.30;;;;;;5040269;28;20057;-71
2021/12/07 07:21:15;;;;;;;24.83;7.68;;;1.70;92.30;;;;;;5039031;28;20036;-71
2021/12/07 07:23:41;;;;;;;26.38;13.75;;;1.70;92.40;;;;;;5042206;28;20067;-72
2021/12/07 07:26:07;;;;;;;18.80;8.43;;;1.80;92.50;;;;;;5039932;28;20055;-72
2021/12/07 07:28:36;;;;;;;19.48;7.63;;;1.80;92.50;;;;;;5037671;28;20448;-70
2021/12/07 07:31:05;;;;;;;23.80;10.30;;;1.80;92.40;;;;;;5039732;28;20034;-72
2021/12/07 07:33:30;;;;;;;24.02;8.85;;;1.80;92.50;;;;;;5030751;28;20033;-72
2021/12/07 07:35:56;;;;;;;24.08;9.10;;;1.80;92.40;;;;;;5037161;28;20046;-73
2021/12/07 07:38:22;;;;;;;21.90;7.90;;;1.80;92.40;;;;;;5039155;28;20040;-72
2021/12/07 07:40:48;;;;;;;17.52;7.40;;;1.80;92.50;;;;;;5040160;28;20033;-70
2021/12/07 07:43:16;;;;;;;23.77;8.82;;;1.80;92.50;;;;;;5041076;28;20119;-70
2021/12/07 07:45:43;;;;;;;27.80;9.15;;;1.70;92.40;;;;;;5041718;28;20029;-72
2021/12/07 07:48:09;;;;;;;25.60;8.93;;;1.80;92.40;;;;;;5039687;28;20064;-72
2021/12/07 07:50:35;;;;;;;22.08;9.02;;;1.80;92.50;;;;;;5033969;28;20042;-72
2021/12/07 07:53:00;;;;;;;22.67;8.98;;;1.80;92.40;;;;;;5039092;28;20348;-71
2021/12/07 07:55:26;;;;;;;22.98;8.15;;;1.80;92.50;;;;;;5041656;28;20334;-71
2021/12/07 07:57:52;;;;;;;21.27;8.40;;;1.80;92.40;;;;;;5040380;28;20030;-73
2021/12/07 08:00:18;;;;;;;23.52;7.80;;;1.80;92.40;;;;;;5028528;28;20034;-71
2021/12/07 08:02:45;;;;;;;26.40;7.47;;;1.90;92.40;;;;;;5018103;28;20040;-72
2021/12/07 08:05:11;;;;;;;19.67;7.68;;;1.90;92.50;;;;;;5020851;28;20045;-73
2021/12/07 08:07:39;;;;;;;17.00;7.03;;;1.90;92.40;;;;;;5019401;28;20040;-72
2021/12/07 08:10:08;;;;;;;21.85;7.43;;;1.90;92.40;;;;;;5019942;28;20030;-72
2021/12/07 08:12:34;;;;;;;19.52;6.57;;;1.90;92.40;;;;;;5019289;28;20037;-71
2021/12/07 08:14:59;;;;;;;18.45;8.88;;;2.00;92.40;;;;;;5021833;28;20208;-70
2021/12/07 08:17:25;;;;;;;17.75;7.70;;;1.90;92.40;;;;;;5019143;28;20036;-70
2021/12/07 08:19:51;;;;;;;20.10;7.25;;;2.00;92.40;;;;;;5023425;28;20052;-70
2021/12/07 08:22:17;;;;;;;19.65;8.35;;;2.10;92.40;;;;;;5025643;28;20030;-71
2021/12/07 08:24:43;;;;;;;23.20;8.98;;;2.10;92.40;;;;;;5026642;28;20038;-72
2021/12/07 08:27:08;;;;;;;18.85;8.20;;;2.10;92.30;;;;;;5026053;28;20026;-72
2021/12/07 08:29:34;;;;;;;19.55;8.15;;;2.20;92.30;;;;;;5040077;28;20042;-70
2021/12/07 08:32:00;;;;;;;18.05;7.25;;;2.20;92.30;;;;;;5026094;28;20053;-72
2021/12/07 08:34:25;;;;;;;21.45;7.18;;;2.30;92.20;;;;;;5022630;28;20087;-72
2021/12/07 08:36:51;;;;;;;18.52;7.57;;;2.40;92.10;;;;;;5026353;28;20040;-71
2021/12/07 08:39:17;;;;;;;22.17;9.25;;;2.50;92.00;;;;;;5024931;28;20030;-71
2021/12/07 08:41:42;;;;;;;22.85;8.20;;;2.60;91.80;;;;;;5024798;28;20097;-71
2021/12/07 08:44:09;;;;;;;25.05;7.55;;;2.70;91.50;;;;;;5023495;28;20033;-70
2021/12/07 08:46:35;;;;;;;24.65;7.65;;;2.70;91.20;;;;;;5020774;28;20038;-71
2021/12/07 08:49:00;;;;;;;21.63;7.90;;;2.70;90.80;;;;;;5022362;28;20481;-72
2021/12/07 08:51:26;;;;;;;24.55;7.32;;;2.90;90.60;;;;;;5015890;28;20062;-72
2021/12/07 08:59:38;;;;;;;19.70;8.45;;;3.00;90.30;;;;;;5025282;28;20018;-71
2021/12/07 09:02:03;;;;;;;17.45;7.72;;;3.20;89.30;;;;;;5045046;28;20033;-71
2021/12/07 09:04:29;;;;;;;22.17;7.43;;;3.30;89.20;;;;;;5044700;28;20335;-72
2021/12/07 09:06:54;;;;;;;18.55;7.40;;;3.30;89.00;;;;;;5042117;28;20049;-72
2021/12/07 09:09:20;;;;;;;22.60;6.88;;;3.30;88.70;;;;;;5044193;28;20041;-72
2021/12/07 09:11:48;;;;;;;17.60;6.57;;;3.40;88.70;;;;;;5038710;28;20065;-71
2021/12/07 09:14:15;;;;;;;16.15;6.90;;;3.50;88.40;;;;;;5044030;28;20041;-71
2021/12/07 09:16:44;;;;;;;18.48;6.88;;;3.50;88.50;;;;;;5042930;28;20445;-71
2021/12/07 09:19:10;;;;;;;23.80;7.13;;;3.60;88.20;;;;;;5043841;28;20097;-71
2021/12/07 09:21:36;;;;;;;16.58;7.05;;;3.60;88.10;;;;;;5039417;28;20084;-71
2021/12/07 09:24:02;;;;;;;14.95;6.15;;;3.80;88.20;;;;;;5045791;28;20056;-73
2021/12/07 09:26:28;;;;;;;20.38;6.30;;;3.90;87.90;;;;;;5041851;28;20040;-71
2021/12/07 09:28:54;;;;;;;14.40;5.03;;;4.00;87.50;;;;;;5043472;28;20037;-72
2021/12/07 09:31:21;;;;;;;15.07;5.65;;;4.10;87.20;;;;;;5046265;28;20042;-74
2021/12/07 09:33:47;;;;;;;18.25;5.53;;;4.20;87.00;;;;;;5053920;28;20033;-71
2021/12/07 09:36:13;;;;;;;17.95;5.82;;;4.30;86.70;;;;;;5041334;28;20116;-72
2021/12/07 09:38:41;;;;;;;14.75;5.25;;;4.20;86.40;;;;;;5042341;28;20060;-73
2021/12/07 09:41:08;;;;;;;15.30;6.22;;;4.20;86.60;;;;;;5044199;28;20041;-70
2021/12/07 09:43:36;;;;;;;14.25;5.07;;;4.20;86.70;;;;;;5043267;28;20045;-71
2021/12/07 09:46:03;;;;;;;20.38;6.28;;;4.30;86.80;;;;;;5041965;28;20033;-72
2021/12/07 09:48:29;;;;;;;19.58;6.55;;;4.30;86.90;;;;;;5042375;28;20136;-70
2021/12/07 09:50:56;;;;;;;18.27;5.80;;;4.30;86.90;;;;;;5043042;28;20381;-71
2021/12/07 09:53:24;;;;;;;17.83;5.95;;;4.40;86.70;;;;;;5041883;28;20057;-72
2021/12/07 09:55:51;;;;;;;17.13;6.30;;;4.30;86.80;;;;;;5057969;28;20121;-71
2021/12/07 09:58:19;;;;;;;18.80;5.63;;;4.40;87.00;;;;;;5039611;28;20053;-73
2021/12/07 10:00:46;;;;;;;17.40;4.88;;;4.30;86.90;;;;;;5039257;28;20038;-71
2021/12/07 10:03:12;;;;;;;15.90;5.47;;;4.30;86.90;;;;;;5040573;28;20037;-72
2021/12/07 10:05:41;;;;;;;12.50;5.10;;;4.30;86.90;;;;;;5042704;28;20072;-72
2021/12/07 10:08:08;;;;;;;18.60;5.47;;;4.40;86.90;;;;;;5037444;28;20030;-72
2021/12/07 10:10:42;;;;;;;14.75;5.28;;;4.30;87.00;;;;;;5043637;28;20156;-74
2021/12/07 10:13:10;;;;;;;17.55;4.60;;;4.40;87.30;;;;;;5036867;28;20056;-71
2021/12/07 10:15:37;;;;;;;18.13;5.25;;;4.40;87.20;;;;;;5039359;28;20657;-70
2021/12/07 10:18:02;;;;;;;14.75;5.13;;;4.40;87.20;;;;;;5035629;28;20044;-72
2021/12/07 10:20:40;;;;;;;18.75;5.50;;;4.50;87.40;;;;;;5037945;28;20030;-71
2021/12/07 10:23:15;;;;;;;20.38;6.07;;;4.40;87.40;;;;;;5039654;28;20033;-70
2021/12/07 10:25:44;;;;;;;15.25;7.30;;;4.50;87.70;;;;;;5042446;28;20093;-71
2021/12/07 10:28:36;;;;;;;22.92;8.60;;;4.50;87.60;;;;;;5038398;28;20064;-71
2021/12/07 10:31:17;;;;;;;17.27;8.00;;;4.60;87.80;;;;;;5036342;28;20030;-72
2021/12/07 10:33:47;;;;;;;21.55;7.63;;;4.60;87.60;;;;;;5040513;28;20068;-71
2021/12/07 10:36:21;;;;;;;19.25;7.57;;;4.60;87.60;;;;;;5040470;28;20037;-73
2021/12/07 10:39:08;;;;;;;24.10;6.73;;;4.60;87.60;;;;;;5034063;28;20042;-72
2021/12/07 10:41:37;;;;;;;19.65;6.60;;;4.70;87.70;;;;;;5040005;28;20044;-72
2021/12/07 10:44:24;;;;;;;20.23;7.38;;;4.80;87.70;;;;;;5041917;28;20041;-71
2021/12/07 10:46:57;;;;;;;21.73;6.88;;;4.90;87.70;;;;;;5043390;28;20052;-71
2021/12/07 10:49:29;;;;;;;22.00;7.15;;;5.10;87.00;;;;;;5034343;28;20094;-70
2021/12/07 10:52:03;;;;;;;22.08;7.38;;;5.20;87.00;;;;;;5038474;28;20038;-70
2021/12/07 10:54:35;;;;;;;23.95;8.02;;;5.40;86.60;;;;;;5038187;28;20093;-70
2021/12/07 10:57:03;;;;;;;19.30;7.70;;;5.30;86.30;;;;;;5034051;28;20045;-72
2021/12/07 10:59:31;;;;;;;17.60;7.68;;;5.50;86.30;;;;;;5029875;28;20033;-72
2021/12/07 11:01:58;;;;;;;21.00;8.02;;;5.50;86.00;;;;;;5036239;28;20037;-72
2021/12/07 11:04:26;;;;;;;28.65;8.85;;;5.70;85.90;;;;;;5037757;28;20042;-72
2021/12/07 11:07:09;;;;;;;20.25;7.03;;;5.80;85.70;;;;;;5034322;28;20030;-71
2021/12/07 11:09:45;;;;;;;19.98;7.18;;;5.80;85.50;;;;;;5039378;28;20057;-71
2021/12/07 11:12:14;;;;;;;19.15;7.55;;;5.80;85.30;;;;;;5034108;28;20050;-72
2021/12/07 11:14:48;;;;;;;23.23;8.40;;;5.80;85.30;;;;;;5039660;28;20093;-72
2021/12/07 11:17:14;;;;;;;21.58;8.32;;;5.80;85.50;;;;;;5039732;28;20070;-71
2021/12/07 11:19:40;;;;;;;21.75;8.57;;;6.00;85.30;;;;;;5037136;28;20037;-72
2021/12/07 11:22:06;;;;;;;25.10;9.77;;;6.10;84.70;;;;;;5042942;28;20067;-72
2021/12/07 11:24:38;;;;;;;26.67;9.15;;;6.10;84.40;;;;;;5035325;28;20030;-71
2021/12/07 11:30:17;;;;;;;16.88;7.72;;;6.10;84.80;;;;;;5039821;28;20057;-72
2021/12/07 11:32:47;;;;;;;24.77;8.32;;;6.20;84.50;;;;;;5040575;28;20046;-71
2021/12/07 11:35:20;;;;;;;27.85;7.38;;;6.20;84.50;;;;;;5042944;28;20041;-71
2021/12/07 11:37:47;;;;;;;18.83;6.40;;;6.20;84.40;;;;;;5057250;28;20033;-72
2021/12/07 11:40:18;;;;;;;21.10;6.55;;;6.20;84.40;;;;;;5040624;28;20046;-72
2021/12/07 11:42:44;;;;;;;18.70;6.68;;;6.20;84.20;;;;;;5041927;28;20093;-72
2021/12/07 11:45:30;;;;;;;21.23;6.80;;;6.20;84.40;;;;;;5040446;28;20044;-71
2021/12/07 11:48:05;;;;;;;18.95;6.45;;;6.20;84.40;;;;;;5041450;28;20037;-71
2021/12/07 11:50:39;;;;;;;17.92;5.75;;;6.20;84.60;;;;;;5029663;28;20034;-71
2021/12/07 11:53:07;;;;;;;20.20;6.35;;;6.10;84.70;;;;;;5055745;28;20013;-72
2021/12/07 11:55:36;;;;;;;16.45;5.43;;;6.10;84.90;;;;;;5035123;28;20033;-71
2021/12/07 11:58:05;;;;;;;18.75;6.25;;;6.10;84.70;;;;;;5041446;28;20033;-71
2021/12/07 12:00:35;;;;;;;25.13;7.20;;;6.10;84.80;;;;;;5041106;28;20038;-71
2021/12/07 12:03:07;;;;;;;20.45;5.53;;;6.00;84.80;;;;;;5041073;28;20043;-71
2021/12/07 12:05:34;;;;;;;18.45;6.53;;;5.90;85.40;;;;;;5044563;28;20037;-71
2021/12/07 12:08:01;;;;;;;21.05;6.03;;;6.00;85.30;;;;;;5049064;28;20037;-72
2021/12/07 12:10:29;;;;;;;14.88;6.10;;;6.10;85.40;;;;;;5053740;28;20035;-73
2021/12/07 12:13:17;;;;;;;19.15;6.07;;;6.00;85.00;;;;;;5045165;28;20042;-71
2021/12/07 12:15:46;;;;;;;19.92;6.22;;;5.90;85.40;;;;;;5042745;28;20072;-73
2021/12/07 12:18:20;;;;;;;17.60;6.60;;;6.00;85.40;;;;;;5044954;28;20117;-72
2021/12/07 12:21:24;;;;;;;15.35;6.38;;;6.00;85.30;;;;;;5043290;28;20041;-72
2021/12/07 12:24:22;;;;;;;15.07;6.72;;;6.00;85.50;;;;;;5024236;28;20045;-72
2021/12/07 12:26:49;;;;;;;17.30;7.80;;;6.00;85.70;;;;;;5039687;28;20072;-73
2021/12/07 12:29:21;;;;;;;16.05;7.05;;;6.00;85.70;;;;;;5045792;28;20037;-74
2021/12/07 12:31:56;;;;;;;16.38;7.38;;;6.10;85.60;;;;;;5045292;28;20044;-75
2021/12/07 12:34:31;;;;;;;17.90;6.60;;;6.10;85.60;;;;;;5044027;28;20049;-73
2021/12/07 12:37:23;;;;;;;18.58;7.43;;;6.10;85.10;;;;;;5039587;28;20045;-74
2021/12/07 12:39:51;;;;;;;16.20;6.05;;;6.20;84.90;;;;;;5043189;28;20036;-73
2021/12/07 12:42:31;;;;;;;13.93;5.88;;;6.20;84.80;;;;;;5044931;28;20033;-75
2021/12/07 12:45:00;;;;;;;18.85;6.60;;;6.30;84.70;;;;;;5039059;28;20253;-72
2021/12/07 12:47:27;;;;;;;15.75;6.10;;;6.30;84.60;;;;;;5041779;28;20036;-73
2021/12/07 12:49:53;;;;;;;12.90;5.28;;;6.20;84.80;;;;;;5041037;28;20053;-72
2021/12/07 12:52:48;;;;;;;16.23;5.22;;;6.30;84.60;;;;;;5042562;28;20041;-74
2021/12/07 12:55:27;;;;;;;20.50;5.38;;;6.30;84.50;;;;;;5041702;28;20030;-72
2021/12/07 12:57:53;;;;;;;15.02;5.70;;;6.30;84.60;;;;;;5042749;28;20029;-74
2021/12/07 13:00:20;;;;;;;17.08;5.45;;;6.30;84.40;;;;;;5044092;28;20115;-73
2021/12/07 13:02:53;;;;;;;16.10;5.40;;;6.40;84.40;;;;;;5043392;28;20037;-73
2021/12/07 13:05:33;;;;;;;16.15;5.43;;;6.40;84.30;;;;;;5043239;28;20045;-75
2021/12/07 13:08:19;;;;;;;16.83;5.47;;;6.40;84.30;;;;;;5042136;28;20065;-73
2021/12/07 13:11:04;;;;;;;12.63;5.82;;;6.40;84.40;;;;;;5043166;28;20052;-73
2021/12/07 13:13:36;;;;;;;15.38;6.63;;;6.40;84.10;;;;;;5040494;28;20050;-73
2021/12/07 13:16:16;;;;;;;17.67;6.35;;;6.40;84.00;;;;;;5042268;28;20046;-75
2021/12/07 13:18:44;;;;;;;13.30;5.25;;;6.40;84.20;;;;;;5042426;28;20044;-73
2021/12/07 13:21:27;;;;;;;14.38;5.43;;;6.40;84.10;;;;;;5032339;28;20846;-75
2021/12/07 13:24:03;;;;;;;13.98;6.07;;;6.40;84.10;;;;;;5031612;28;20037;-71
2021/12/07 13:26:38;;;;;;;20.63;5.88;;;6.40;84.20;;;;;;5032156;28;20167;-73
2021/12/07 13:29:07;;;;;;;17.10;5.68;;;6.40;84.20;;;;;;5026160;28;20492;-74
2021/12/07 13:31:55;;;;;;;13.77;5.55;;;6.40;84.30;;;;;;5030453;28;20396;-73
2021/12/07 13:34:29;;;;;;;13.80;5.43;;;6.40;84.40;;;;;;5038561;28;20082;-73
2021/12/07 13:37:02;;;;;;;13.27;5.55;;;6.40;84.10;;;;;;5043794;28;20037;-73
2021/12/07 13:39:34;;;;;;;12.73;5.68;;;6.40;83.90;;;;;;5040048;28;20057;-73
2021/12/07 13:42:06;;;;;;;12.88;5.75;;;6.40;84.20;;;;;;5036943;28;20091;-73
2021/12/07 13:44:35;;;;;;;17.05;6.60;;;6.40;84.20;;;;;;5039875;28;20029;-73
2021/12/07 13:47:06;;;;;;;19.48;6.03;;;6.30;84.20;;;;;;5039868;28;20042;-74
2021/12/07 13:49:34;;;;;;;19.20;6.53;;;6.30;84.20;;;;;;5034828;28;20122;-75
2021/12/07 13:52:01;;;;;;;16.63;6.15;;;6.40;84.30;;;;;;5034550;28;20068;-75
2021/12/07 13:54:27;;;;;;;18.73;8.05;;;6.40;84.50;;;;;;5031760;28;20038;-73
2021/12/07 13:56:55;;;;;;;14.40;6.68;;;6.30;84.50;;;;;;5038752;28;20068;-72
2021/12/07 13:59:26;;;;;;;13.85;7.28;;;6.30;84.60;;;;;;5041282;28;26066;-73
2021/12/07 14:01:59;;;;;;;22.13;7.72;;;6.20;84.50;;;;;;5039978;28;20113;-72
2021/12/07 14:04:27;;;;;;;17.27;7.82;;;6.20;84.70;;;;;;5041620;28;20025;-72
2021/12/07 14:06:53;;;;;;;13.77;7.03;;;6.20;84.80;;;;;;5042055;28;20050;-72
2021/12/07 14:09:20;;;;;;;13.70;7.68;;;6.20;84.70;;;;;;5040951;28;20092;-71
2021/12/07 14:11:51;;;;;;;16.25;8.70;;;6.10;84.50;;;;;;5041507;28;20041;-72
2021/12/07 14:14:17;;;;;;;15.35;8.82;;;6.10;84.50;;;;;;5039982;28;20054;-73
2021/12/07 14:16:44;;;;;;;22.00;9.23;;;6.10;84.60;;;;;;5040547;28;20033;-72
2021/12/07 14:19:11;;;;;;;19.58;9.18;;;6.10;84.60;;;;;;5038985;28;20107;-75
2021/12/07 14:21:36;;;;;;;22.50;9.80;;;6.10;84.70;;;;;;5040743;28;20034;-74
2021/12/07 14:24:07;;;;;;;17.30;9.95;;;6.00;84.90;;;;;;5038368;28;20109;-73
2021/12/07 14:26:36;;;;;;;14.45;9.55;;;6.00;84.90;;;;;;5040595;28;20033;-73
2021/12/07 14:29:12;;;;;;;14.82;9.32;;;5.90;84.70;;;;;;5036629;28;20041;-72
2021/12/07 14:31:41;;;;;;;17.67;10.43;;;5.80;84.60;;;;;;5037918;28;20037;-73
2021/12/07 14:34:13;;;;;;;19.95;10.35;;;5.80;84.50;;;;;;5037897;28;20093;-72
2021/12/07 14:36:52;;;;;;;18.73;9.63;;;5.70;84.80;;;;;;5039409;28;20041;-75
2021/12/07 14:39:26;;;;;;;13.60;8.45;;;5.70;85.00;;;;;;5038264;28;20033;-72